sensor_id;sensor_type;location;lat;lon;timestamp;pressure;altitude;pressure_sealevel;temperature;humidity
55490;BME280;44029;52.956;4.772;2022-08-11T00:01:52;102696.81;;;21.02;100.00
55490;BME280;44029;52.956;4.772;2022-08-11T00:04:20;102694.03;;;21.13;100.00
55490;BME280;44029;52.956;4.772;2022-08-11T00:06:48;102701.81;;;21.00;100.00
55490;BME280;44029;52.956;4.772;2022-08-11T00:09:22;102705.47;;;21.16;100.00
55490;BME280;44029;52.956;4.772;2022-08-11T00:11:55;102694.00;;;21.08;100.00
55490;BME280;44029;52.956;4.772;2022-08-11T00:14:30;102702.09;;;21.04;100.00
55490;BME280;44029;52.956;4.772;2022-08-11T00:17:04;102700.16;;;20.99;100.00
55490;BME280;44029;52.956;4.772;2022-08-11T00:19:32;102703.47;;;20.96;100.00
55490;BME280;44029;52.956;4.772;2022-08-11T00:21:58;102702.91;;;20.94;100.00
55490;BME280;44029;52.956;4.772;2022-08-11T00:24:31;102703.50;;;21.01;100.00
55490;BME280;44029;52.956;4.772;2022-08-11T00:26:57;102699.56;;;20.92;100.00
55490;BME280;44029;52.956;4.772;2022-08-11T00:29:23;102700.69;;;20.96;100.00
55490;BME280;44029;52.956;4.772;2022-08-11T00:31:51;102702.09;;;20.99;100.00
55490;BME280;44029;52.956;4.772;2022-08-11T00:34:24;102697.91;;;21.01;100.00
55490;BME280;44029;52.956;4.772;2022-08-11T00:36:54;102706.28;;;21.01;100.00
55490;BME280;44029;52.956;4.772;2022-08-11T00:39:21;102705.16;;;20.97;100.00
55490;BME280;44029;52.956;4.772;2022-08-11T00:44:39;102698.47;;;21.03;100.00
55490;BME280;44029;52.956;4.772;2022-08-11T01:12:28;102706.22;;;20.81;100.00
55490;BME280;44029;52.956;4.772;2022-08-11T01:15:19;102716.25;;;20.87;100.00
55490;BME280;44029;52.956;4.772;2022-08-11T01:21:08;102720.78;;;21.09;100.00
55490;BME280;44029;52.956;4.772;2022-08-11T01:24:11;102712.94;;;21.00;100.00
55490;BME280;44029;52.956;4.772;2022-08-11T01:47:20;102685.56;;;20.66;100.00
55490;BME280;44029;52.956;4.772;2022-08-11T01:50:31;102683.00;;;20.60;100.00
55490;BME280;44029;52.956;4.772;2022-08-11T02:01:32;102689.50;;;20.76;100.00
55490;BME280;44029;52.956;4.772;2022-08-11T02:07:20;102693.66;;;20.78;100.00
55490;BME280;44029;52.956;4.772;2022-08-11T02:10:21;102692.00;;;20.72;100.00
55490;BME280;44029;52.956;4.772;2022-08-11T02:22:05;102671.38;;;20.78;100.00
55490;BME280;44029;52.956;4.772;2022-08-11T02:25:06;102666.94;;;20.72;100.00
55490;BME280;44029;52.956;4.772;2022-08-11T02:27:50;102657.19;;;20.80;100.00
55490;BME280;44029;52.956;4.772;2022-08-11T02:30:23;102666.38;;;20.75;100.00
55490;BME280;44029;52.956;4.772;2022-08-11T02:33:12;102655.75;;;20.67;100.00
55490;BME280;44029;52.956;4.772;2022-08-11T02:35:58;102660.25;;;20.78;100.00
55490;BME280;44029;52.956;4.772;2022-08-11T02:41:13;102654.91;;;20.61;100.00
55490;BME280;44029;52.956;4.772;2022-08-11T02:49:45;102658.88;;;20.81;100.00
55490;BME280;44029;52.956;4.772;2022-08-11T02:52:29;102651.38;;;20.92;100.00
55490;BME280;44029;52.956;4.772;2022-08-11T02:58:17;102631.84;;;20.66;100.00
55490;BME280;44029;52.956;4.772;2022-08-11T03:00:54;102631.00;;;20.71;100.00
55490;BME280;44029;52.956;4.772;2022-08-11T03:06:22;102623.50;;;20.81;100.00
55490;BME280;44029;52.956;4.772;2022-08-11T03:09:18;102626.00;;;20.78;100.00
55490;BME280;44029;52.956;4.772;2022-08-11T03:14:48;102623.69;;;20.59;100.00
55490;BME280;44029;52.956;4.772;2022-08-11T03:17:41;102621.25;;;20.78;100.00
55490;BME280;44029;52.956;4.772;2022-08-11T03:20:37;102620.72;;;20.71;100.00
55490;BME280;44029;52.956;4.772;2022-08-11T03:23:46;102622.41;;;20.82;100.00
55490;BME280;44029;52.956;4.772;2022-08-11T03:26:25;102612.09;;;20.83;100.00
55490;BME280;44029;52.956;4.772;2022-08-11T03:29:00;102605.91;;;20.71;100.00
55490;BME280;44029;52.956;4.772;2022-08-11T03:31:36;102604.25;;;20.70;100.00
55490;BME280;44029;52.956;4.772;2022-08-11T03:34:16;102615.94;;;20.66;100.00
55490;BME280;44029;52.956;4.772;2022-08-11T03:39:53;102615.41;;;20.75;100.00
55490;BME280;44029;52.956;4.772;2022-08-11T03:42:57;102592.00;;;20.71;100.00
55490;BME280;44029;52.956;4.772;2022-08-11T03:51:31;102600.63;;;20.69;100.00
55490;BME280;44029;52.956;4.772;2022-08-11T03:54:05;102604.81;;;20.82;100.00
55490;BME280;44029;52.956;4.772;2022-08-11T04:02:30;102613.19;;;20.77;100.00
55490;BME280;44029;52.956;4.772;2022-08-11T04:08:14;102607.63;;;20.77;100.00
55490;BME280;44029;52.956;4.772;2022-08-11T04:11:32;102610.41;;;20.72;100.00
55490;BME280;44029;52.956;4.772;2022-08-11T04:17:47;102600.91;;;20.73;100.00
55490;BME280;44029;52.956;4.772;2022-08-11T04:23:09;102598.41;;;20.76;100.00
55490;BME280;44029;52.956;4.772;2022-08-11T04:34:35;102596.19;;;21.30;100.00
55490;BME280;44029;52.956;4.772;2022-08-11T04:40:02;102569.59;;;21.89;100.00
55490;BME280;44029;52.956;4.772;2022-08-11T04:49:24;102554.63;;;22.24;100.00
55490;BME280;44029;52.956;4.772;2022-08-11T04:55:40;102557.75;;;22.17;100.00
55490;BME280;44029;52.956;4.772;2022-08-11T05:11:32;102560.50;;;22.28;100.00
55490;BME280;44029;52.956;4.772;2022-08-11T05:16:59;102559.47;;;22.08;100.00
55490;BME280;44029;52.956;4.772;2022-08-11T05:19:47;102555.50;;;22.19;100.00
55490;BME280;44029;52.956;4.772;2022-08-11T05:22:32;102558.22;;;22.35;100.00
55490;BME280;44029;52.956;4.772;2022-08-11T05:25:28;102544.34;;;22.64;100.00
55490;BME280;44029;52.956;4.772;2022-08-11T05:28:34;102544.56;;;23.02;100.00
55490;BME280;44029;52.956;4.772;2022-08-11T05:31:35;102525.25;;;23.88;100.00
55490;BME280;44029;52.956;4.772;2022-08-11T05:34:32;102528.44;;;24.20;100.00
55490;BME280;44029;52.956;4.772;2022-08-11T05:40:03;102521.88;;;25.14;100.00
55490;BME280;44029;52.956;4.772;2022-08-11T05:42:50;102522.47;;;24.97;100.00
55490;BME280;44029;52.956;4.772;2022-08-11T05:45:39;102519.56;;;25.63;100.00
55490;BME280;44029;52.956;4.772;2022-08-11T05:48:29;102518.88;;;25.11;100.00
55490;BME280;44029;52.956;4.772;2022-08-11T05:51:15;102526.25;;;24.74;100.00
55490;BME280;44029;52.956;4.772;2022-08-11T05:54:00;102532.00;;;24.63;100.00
55490;BME280;44029;52.956;4.772;2022-08-11T05:56:53;102524.47;;;24.97;100.00
55490;BME280;44029;52.956;4.772;2022-08-11T05:59:20;102532.56;;;24.65;100.00
55490;BME280;44029;52.956;4.772;2022-08-11T06:01:47;102526.25;;;24.17;100.00
55490;BME280;44029;52.956;4.772;2022-08-11T06:04:23;102533.97;;;24.63;100.00
55490;BME280;44029;52.956;4.772;2022-08-11T06:07:04;102525.72;;;25.18;100.00
55490;BME280;44029;52.956;4.772;2022-08-11T06:09:47;102527.69;;;24.71;100.00
55490;BME280;44029;52.956;4.772;2022-08-11T06:12:19;102531.25;;;24.58;100.00
55490;BME280;44029;52.956;4.772;2022-08-11T06:14:49;102529.72;;;24.27;100.00
55490;BME280;44029;52.956;4.772;2022-08-11T06:17:25;102525.47;;;24.11;100.00
55490;BME280;44029;52.956;4.772;2022-08-11T06:19:58;102531.25;;;24.39;100.00
55490;BME280;44029;52.956;4.772;2022-08-11T06:22:24;102524.94;;;23.90;100.00
55490;BME280;44029;52.956;4.772;2022-08-11T06:24:57;102523.97;;;23.76;100.00
55490;BME280;44029;52.956;4.772;2022-08-11T06:27:25;102535.69;;;23.29;100.00
55490;BME280;44029;52.956;4.772;2022-08-11T06:29:52;102531.28;;;23.23;100.00
55490;BME280;44029;52.956;4.772;2022-08-11T06:32:23;102536.09;;;23.18;100.00
55490;BME280;44029;52.956;4.772;2022-08-11T06:35:04;102535.72;;;23.24;100.00
55490;BME280;44029;52.956;4.772;2022-08-11T06:37:45;102540.47;;;23.53;100.00
55490;BME280;44029;52.956;4.772;2022-08-11T06:40:33;102536.59;;;23.73;100.00
55490;BME280;44029;52.956;4.772;2022-08-11T06:43:20;102538.53;;;23.72;100.00
55490;BME280;44029;52.956;4.772;2022-08-11T06:46:00;102533.88;;;24.30;100.00
55490;BME280;44029;52.956;4.772;2022-08-11T06:48:29;102543.44;;;24.67;100.00
55490;BME280;44029;52.956;4.772;2022-08-11T06:50:59;102531.63;;;25.36;100.00
55490;BME280;44029;52.956;4.772;2022-08-11T06:53:45;102524.50;;;26.21;100.00
55490;BME280;44029;52.956;4.772;2022-08-11T06:56:15;102516.44;;;26.65;100.00
55490;BME280;44029;52.956;4.772;2022-08-11T06:59:04;102510.16;;;26.91;100.00
55490;BME280;44029;52.956;4.772;2022-08-11T07:04:21;102503.91;;;27.65;100.00
55490;BME280;44029;52.956;4.772;2022-08-11T07:09:47;102496.63;;;26.70;100.00
55490;BME280;44029;52.956;4.772;2022-08-11T07:12:40;102503.09;;;26.71;100.00
55490;BME280;44029;52.956;4.772;2022-08-11T07:15:31;102500.13;;;26.53;100.00
55490;BME280;44029;52.956;4.772;2022-08-11T07:18:06;102511.84;;;25.27;100.00
55490;BME280;44029;52.956;4.772;2022-08-11T07:20:54;102530.25;;;25.00;100.00
55490;BME280;44029;52.956;4.772;2022-08-11T07:23:48;102545.91;;;24.11;100.00
55490;BME280;44029;52.956;4.772;2022-08-11T07:26:43;102545.47;;;24.04;100.00
55490;BME280;44029;52.956;4.772;2022-08-11T07:29:30;102555.78;;;23.85;100.00
55490;BME280;44029;52.956;4.772;2022-08-11T07:31:56;102551.78;;;23.67;100.00
55490;BME280;44029;52.956;4.772;2022-08-11T07:34:33;102555.91;;;23.99;100.00
55490;BME280;44029;52.956;4.772;2022-08-11T07:37:03;102551.63;;;23.58;100.00
55490;BME280;44029;52.956;4.772;2022-08-11T07:39:35;102552.09;;;23.89;100.00
55490;BME280;44029;52.956;4.772;2022-08-11T07:42:05;102543.25;;;23.77;100.00
55490;BME280;44029;52.956;4.772;2022-08-11T07:44:31;102538.63;;;23.67;100.00
55490;BME280;44029;52.956;4.772;2022-08-11T07:47:18;102547.72;;;23.78;100.00
55490;BME280;44029;52.956;4.772;2022-08-11T07:50:03;102553.72;;;24.15;100.00
55490;BME280;44029;52.956;4.772;2022-08-11T07:52:47;102535.72;;;25.24;100.00
55490;BME280;44029;52.956;4.772;2022-08-11T07:55:15;102521.53;;;26.63;100.00
55490;BME280;44029;52.956;4.772;2022-08-11T07:57:44;102502.53;;;26.60;100.00
55490;BME280;44029;52.956;4.772;2022-08-11T08:00:28;102502.19;;;26.84;100.00
55490;BME280;44029;52.956;4.772;2022-08-11T08:03:18;102502.56;;;26.91;100.00
55490;BME280;44029;52.956;4.772;2022-08-11T08:06:04;102504.75;;;27.26;100.00
55490;BME280;44029;52.956;4.772;2022-08-11T08:08:49;102496.38;;;27.12;100.00
55490;BME280;44029;52.956;4.772;2022-08-11T08:11:33;102499.13;;;27.26;100.00
55490;BME280;44029;52.956;4.772;2022-08-11T08:14:17;102501.97;;;27.34;100.00
55490;BME280;44029;52.956;4.772;2022-08-11T08:17:02;102495.53;;;27.34;100.00
55490;BME280;44029;52.956;4.772;2022-08-11T08:19:48;102491.84;;;27.02;100.00
55490;BME280;44029;52.956;4.772;2022-08-11T08:22:17;102500.28;;;27.02;100.00
55490;BME280;44029;52.956;4.772;2022-08-11T08:24:43;102505.31;;;26.83;100.00
55490;BME280;44029;52.956;4.772;2022-08-11T08:27:09;102506.97;;;27.06;100.00
55490;BME280;44029;52.956;4.772;2022-08-11T08:29:37;102509.59;;;27.34;100.00
55490;BME280;44029;52.956;4.772;2022-08-11T08:32:22;102506.91;;;27.29;100.00
55490;BME280;44029;52.956;4.772;2022-08-11T08:34:49;102502.66;;;27.09;100.00
55490;BME280;44029;52.956;4.772;2022-08-11T08:37:18;102515.09;;;26.85;100.00
55490;BME280;44029;52.956;4.772;2022-08-11T08:39:46;102497.50;;;26.57;100.00
55490;BME280;44029;52.956;4.772;2022-08-11T08:42:15;102500.97;;;27.08;100.00
55490;BME280;44029;52.956;4.772;2022-08-11T08:44:44;102497.72;;;27.14;100.00
55490;BME280;44029;52.956;4.772;2022-08-11T08:47:14;102500.38;;;26.88;100.00
55490;BME280;44029;52.956;4.772;2022-08-11T08:49:45;102507.53;;;26.94;100.00
55490;BME280;44029;52.956;4.772;2022-08-11T08:52:21;102505.50;;;27.49;100.00
55490;BME280;44029;52.956;4.772;2022-08-11T08:54:51;102509.94;;;26.78;100.00
55490;BME280;44029;52.956;4.772;2022-08-11T08:57:21;102493.13;;;26.65;100.00
55490;BME280;44029;52.956;4.772;2022-08-11T08:59:48;102508.16;;;26.60;100.00
55490;BME280;44029;52.956;4.772;2022-08-11T09:02:16;102504.41;;;26.51;100.00
55490;BME280;44029;52.956;4.772;2022-08-11T09:04:44;102492.88;;;26.75;100.00
55490;BME280;44029;52.956;4.772;2022-08-11T09:07:13;102501.00;;;26.76;100.00
55490;BME280;44029;52.956;4.772;2022-08-11T09:09:51;102504.22;;;26.47;100.00
55490;BME280;44029;52.956;4.772;2022-08-11T09:12:20;102508.44;;;26.36;100.00
55490;BME280;44029;52.956;4.772;2022-08-11T09:14:48;102501.97;;;26.35;100.00
55490;BME280;44029;52.956;4.772;2022-08-11T09:17:35;102501.47;;;27.01;100.00
55490;BME280;44029;52.956;4.772;2022-08-11T09:20:20;102503.34;;;26.60;100.00
55490;BME280;44029;52.956;4.772;2022-08-11T09:22:47;102502.94;;;26.31;100.00
55490;BME280;44029;52.956;4.772;2022-08-11T09:25:32;102506.22;;;25.96;100.00
55490;BME280;44029;52.956;4.772;2022-08-11T09:28:18;102516.94;;;25.66;100.00
55490;BME280;44029;52.956;4.772;2022-08-11T09:30:46;102516.13;;;25.66;100.00
55490;BME280;44029;52.956;4.772;2022-08-11T09:33:15;102526.84;;;25.36;100.00
55490;BME280;44029;52.956;4.772;2022-08-11T09:35:41;102523.50;;;25.34;100.00
55490;BME280;44029;52.956;4.772;2022-08-11T09:38:10;102521.53;;;25.02;100.00
55490;BME280;44029;52.956;4.772;2022-08-11T09:40:55;102521.38;;;25.12;100.00
55490;BME280;44029;52.956;4.772;2022-08-11T09:43:22;102527.88;;;25.40;100.00
55490;BME280;44029;52.956;4.772;2022-08-11T09:46:08;102515.03;;;25.20;100.00
55490;BME280;44029;52.956;4.772;2022-08-11T09:48:44;102519.16;;;25.42;100.00
55490;BME280;44029;52.956;4.772;2022-08-11T09:51:11;102526.72;;;25.27;100.00
55490;BME280;44029;52.956;4.772;2022-08-11T09:53:40;102525.22;;;25.16;100.00
55490;BME280;44029;52.956;4.772;2022-08-11T09:56:10;102522.13;;;25.32;100.00
55490;BME280;44029;52.956;4.772;2022-08-11T09:58:55;102518.56;;;25.12;100.00
55490;BME280;44029;52.956;4.772;2022-08-11T10:01:22;102523.72;;;25.38;100.00
55490;BME280;44029;52.956;4.772;2022-08-11T10:03:57;102527.88;;;25.40;100.00
55490;BME280;44029;52.956;4.772;2022-08-11T10:06:25;102529.13;;;25.01;100.00
55490;BME280;44029;52.956;4.772;2022-08-11T10:09:11;102519.53;;;24.88;100.00
55490;BME280;44029;52.956;4.772;2022-08-11T10:11:38;102521.72;;;25.24;100.00
55490;BME280;44029;52.956;4.772;2022-08-11T10:14:06;102526.94;;;24.98;100.00
55490;BME280;44029;52.956;4.772;2022-08-11T10:16:51;102520.72;;;25.15;100.00
55490;BME280;44029;52.956;4.772;2022-08-11T10:19:18;102524.03;;;25.36;100.00
55490;BME280;44029;52.956;4.772;2022-08-11T10:21:49;102521.00;;;25.00;100.00
55490;BME280;44029;52.956;4.772;2022-08-11T10:24:34;102519.81;;;25.20;100.00
55490;BME280;44029;52.956;4.772;2022-08-11T10:27:18;102519.22;;;25.23;100.00
55490;BME280;44029;52.956;4.772;2022-08-11T10:29:44;102512.47;;;25.24;100.00
55490;BME280;44029;52.956;4.772;2022-08-11T10:32:29;102514.59;;;25.13;100.00
55490;BME280;44029;52.956;4.772;2022-08-11T10:35:16;102511.78;;;25.13;100.00
55490;BME280;44029;52.956;4.772;2022-08-11T10:37:44;102524.28;;;25.21;100.00
55490;BME280;44029;52.956;4.772;2022-08-11T10:40:16;102521.59;;;25.16;100.00
55490;BME280;44029;52.956;4.772;2022-08-11T10:42:43;102512.91;;;25.31;100.00
55490;BME280;44029;52.956;4.772;2022-08-11T10:45:31;102514.16;;;25.39;100.00
55490;BME280;44029;52.956;4.772;2022-08-11T10:48:16;102520.84;;;25.10;100.00
55490;BME280;44029;52.956;4.772;2022-08-11T10:50:49;102516.84;;;25.30;100.00
55490;BME280;44029;52.956;4.772;2022-08-11T10:53:34;102516.00;;;25.30;100.00
55490;BME280;44029;52.956;4.772;2022-08-11T10:56:19;102508.97;;;25.46;100.00
55490;BME280;44029;52.956;4.772;2022-08-11T10:59:05;102512.50;;;25.52;100.00
55490;BME280;44029;52.956;4.772;2022-08-11T11:01:40;102494.53;;;25.53;100.00
55490;BME280;44029;52.956;4.772;2022-08-11T11:04:15;102511.34;;;25.53;100.00
55490;BME280;44029;52.956;4.772;2022-08-11T11:06:58;102508.53;;;25.39;100.00
55490;BME280;44029;52.956;4.772;2022-08-11T11:09:30;102506.88;;;25.38;100.00
55490;BME280;44029;52.956;4.772;2022-08-11T11:12:08;102496.59;;;25.61;100.00
55490;BME280;44029;52.956;4.772;2022-08-11T11:14:54;102499.59;;;25.37;100.00
55490;BME280;44029;52.956;4.772;2022-08-11T11:17:49;102497.53;;;25.42;100.00
55490;BME280;44029;52.956;4.772;2022-08-11T11:20:42;102495.03;;;25.41;100.00
55490;BME280;44029;52.956;4.772;2022-08-11T11:26:40;102491.19;;;25.64;100.00
55490;BME280;44029;52.956;4.772;2022-08-11T11:32:10;102495.72;;;25.74;100.00
55490;BME280;44029;52.956;4.772;2022-08-11T11:34:54;102478.28;;;25.77;100.00
55490;BME280;44029;52.956;4.772;2022-08-11T11:37:23;102480.78;;;25.51;100.00
55490;BME280;44029;52.956;4.772;2022-08-11T11:39:50;102467.69;;;25.60;100.00
55490;BME280;44029;52.956;4.772;2022-08-11T11:42:17;102464.47;;;25.53;100.00
55490;BME280;44029;52.956;4.772;2022-08-11T11:44:43;102468.09;;;25.54;100.00
55490;BME280;44029;52.956;4.772;2022-08-11T11:47:13;102473.69;;;25.81;100.00
55490;BME280;44029;52.956;4.772;2022-08-11T11:49:42;102471.13;;;25.71;100.00
55490;BME280;44029;52.956;4.772;2022-08-11T11:52:17;102479.63;;;25.66;100.00
55490;BME280;44029;52.956;4.772;2022-08-11T11:54:44;102471.84;;;25.63;100.00
55490;BME280;44029;52.956;4.772;2022-08-11T11:57:13;102467.66;;;25.74;100.00
55490;BME280;44029;52.956;4.772;2022-08-11T11:59:57;102467.56;;;25.79;100.00
55490;BME280;44029;52.956;4.772;2022-08-11T12:02:42;102457.97;;;25.94;100.00
55490;BME280;44029;52.956;4.772;2022-08-11T12:05:09;102460.47;;;25.96;100.00
55490;BME280;44029;52.956;4.772;2022-08-11T12:07:35;102459.94;;;25.80;100.00
55490;BME280;44029;52.956;4.772;2022-08-11T12:10:19;102461.13;;;25.65;100.00
55490;BME280;44029;52.956;4.772;2022-08-11T12:12:45;102452.34;;;26.08;100.00
55490;BME280;44029;52.956;4.772;2022-08-11T12:15:30;102449.03;;;26.06;100.00
55490;BME280;44029;52.956;4.772;2022-08-11T12:17:57;102450.06;;;25.96;100.00
55490;BME280;44029;52.956;4.772;2022-08-11T12:20:24;102440.91;;;26.04;100.00
55490;BME280;44029;52.956;4.772;2022-08-11T12:22:50;102457.69;;;25.82;100.00
55490;BME280;44029;52.956;4.772;2022-08-11T12:25:36;102457.88;;;25.99;100.00
55490;BME280;44029;52.956;4.772;2022-08-11T12:28:20;102468.38;;;25.80;100.00
55490;BME280;44029;52.956;4.772;2022-08-11T12:30:48;102467.44;;;25.84;100.00
55490;BME280;44029;52.956;4.772;2022-08-11T12:33:15;102460.59;;;25.77;100.00
55490;BME280;44029;52.956;4.772;2022-08-11T12:35:41;102454.78;;;25.73;100.00
55490;BME280;44029;52.956;4.772;2022-08-11T12:38:08;102452.25;;;25.85;100.00
55490;BME280;44029;52.956;4.772;2022-08-11T12:40:34;102449.59;;;25.66;100.00
55490;BME280;44029;52.956;4.772;2022-08-11T12:43:20;102446.31;;;25.87;100.00
55490;BME280;44029;52.956;4.772;2022-08-11T12:46:08;102443.31;;;25.83;100.00
55490;BME280;44029;52.956;4.772;2022-08-11T12:48:36;102429.06;;;25.80;100.00
55490;BME280;44029;52.956;4.772;2022-08-11T12:51:24;102433.66;;;25.90;100.00
55490;BME280;44029;52.956;4.772;2022-08-11T12:54:14;102422.63;;;25.93;100.00
55490;BME280;44029;52.956;4.772;2022-08-11T12:56:49;102420.09;;;26.06;100.00
55490;BME280;44029;52.956;4.772;2022-08-11T12:59:34;102429.56;;;26.10;100.00
55490;BME280;44029;52.956;4.772;2022-08-11T13:02:20;102434.28;;;26.00;100.00
55490;BME280;44029;52.956;4.772;2022-08-11T13:05:06;102435.81;;;25.93;100.00
55490;BME280;44029;52.956;4.772;2022-08-11T13:07:32;102425.84;;;26.00;100.00
55490;BME280;44029;52.956;4.772;2022-08-11T13:10:00;102422.19;;;26.00;100.00
55490;BME280;44029;52.956;4.772;2022-08-11T13:12:28;102422.56;;;26.07;100.00
55490;BME280;44029;52.956;4.772;2022-08-11T13:15:20;102415.63;;;26.04;100.00
55490;BME280;44029;52.956;4.772;2022-08-11T13:17:46;102422.78;;;26.11;100.00
55490;BME280;44029;52.956;4.772;2022-08-11T13:20:16;102414.34;;;26.11;100.00
55490;BME280;44029;52.956;4.772;2022-08-11T13:22:46;102419.38;;;26.00;100.00
55490;BME280;44029;52.956;4.772;2022-08-11T13:25:13;102416.06;;;25.98;100.00
55490;BME280;44029;52.956;4.772;2022-08-11T13:27:40;102415.50;;;26.10;100.00
55490;BME280;44029;52.956;4.772;2022-08-11T13:30:06;102414.28;;;26.02;100.00
55490;BME280;44029;52.956;4.772;2022-08-11T13:32:52;102413.69;;;25.91;100.00
55490;BME280;44029;52.956;4.772;2022-08-11T13:35:20;102423.47;;;25.80;100.00
55490;BME280;44029;52.956;4.772;2022-08-11T13:37:46;102421.31;;;25.77;100.00
55490;BME280;44029;52.956;4.772;2022-08-11T13:40:16;102423.22;;;25.90;100.00
55490;BME280;44029;52.956;4.772;2022-08-11T13:42:42;102416.38;;;25.96;100.00
55490;BME280;44029;52.956;4.772;2022-08-11T13:45:09;102393.34;;;26.08;100.00
55490;BME280;44029;52.956;4.772;2022-08-11T13:47:36;102401.97;;;26.12;100.00
55490;BME280;44029;52.956;4.772;2022-08-11T13:50:02;102402.72;;;26.03;100.00
55490;BME280;44029;52.956;4.772;2022-08-11T13:52:28;102401.00;;;25.94;100.00
55490;BME280;44029;52.956;4.772;2022-08-11T13:54:55;102393.34;;;26.08;100.00
55490;BME280;44029;52.956;4.772;2022-08-11T13:57:21;102384.34;;;25.97;100.00
55490;BME280;44029;52.956;4.772;2022-08-11T13:59:52;102374.44;;;26.22;100.00
55490;BME280;44029;52.956;4.772;2022-08-11T14:02:22;102373.75;;;26.17;100.00
55490;BME280;44029;52.956;4.772;2022-08-11T14:04:58;102386.13;;;26.16;100.00
55490;BME280;44029;52.956;4.772;2022-08-11T14:07:41;102381.16;;;26.13;100.00
55490;BME280;44029;52.956;4.772;2022-08-11T14:10:11;102373.63;;;26.22;100.00
55490;BME280;44029;52.956;4.772;2022-08-11T14:12:39;102360.06;;;26.24;100.00
55490;BME280;44029;52.956;4.772;2022-08-11T14:15:32;102375.53;;;26.13;100.00
55490;BME280;44029;52.956;4.772;2022-08-11T14:18:03;102376.94;;;26.01;100.00
55490;BME280;44029;52.956;4.772;2022-08-11T14:20:35;102365.59;;;26.07;100.00
55490;BME280;44029;52.956;4.772;2022-08-11T14:23:58;102351.81;;;26.19;100.00
55490;BME280;44029;52.956;4.772;2022-08-11T14:26:24;102352.06;;;26.09;100.00
55490;BME280;44029;52.956;4.772;2022-08-11T14:29:05;102348.09;;;26.41;100.00
55490;BME280;44029;52.956;4.772;2022-08-11T14:31:33;102345.91;;;26.29;100.00
55490;BME280;44029;52.956;4.772;2022-08-11T14:34:05;102354.25;;;26.20;100.00
55490;BME280;44029;52.956;4.772;2022-08-11T14:36:41;102347.50;;;26.21;100.00
55490;BME280;44029;52.956;4.772;2022-08-11T14:39:12;102350.38;;;26.08;100.00
55490;BME280;44029;52.956;4.772;2022-08-11T14:41:42;102348.03;;;26.23;100.00
55490;BME280;44029;52.956;4.772;2022-08-11T14:44:26;102351.28;;;26.17;100.00
55490;BME280;44029;52.956;4.772;2022-08-11T14:47:13;102342.72;;;26.22;100.00
55490;BME280;44029;52.956;4.772;2022-08-11T14:49:40;102340.59;;;26.28;100.00
55490;BME280;44029;52.956;4.772;2022-08-11T14:52:10;102345.28;;;26.10;100.00
55490;BME280;44029;52.956;4.772;2022-08-11T14:54:41;102343.38;;;26.19;100.00
55490;BME280;44029;52.956;4.772;2022-08-11T14:57:25;102328.75;;;26.08;100.00
55490;BME280;44029;52.956;4.772;2022-08-11T14:59:53;102330.28;;;26.14;100.00
55490;BME280;44029;52.956;4.772;2022-08-11T15:02:22;102334.16;;;26.27;100.00
55490;BME280;44029;52.956;4.772;2022-08-11T15:05:06;102333.28;;;25.95;100.00
55490;BME280;44029;52.956;4.772;2022-08-11T15:07:32;102332.91;;;26.11;100.00
55490;BME280;44029;52.956;4.772;2022-08-11T15:10:00;102325.72;;;26.27;100.00
55490;BME280;44029;52.956;4.772;2022-08-11T15:12:28;102327.09;;;26.07;100.00
55490;BME280;44029;52.956;4.772;2022-08-11T15:14:54;102324.78;;;26.09;100.00
55490;BME280;44029;52.956;4.772;2022-08-11T15:17:39;102331.94;;;26.15;100.00
55490;BME280;44029;52.956;4.772;2022-08-11T15:20:08;102318.97;;;26.28;100.00
55490;BME280;44029;52.956;4.772;2022-08-11T15:22:54;102322.44;;;26.02;100.00
55490;BME280;44029;52.956;4.772;2022-08-11T15:25:41;102328.16;;;26.20;100.00
55490;BME280;44029;52.956;4.772;2022-08-11T15:28:09;102327.97;;;26.16;100.00
55490;BME280;44029;52.956;4.772;2022-08-11T15:30:55;102324.66;;;26.14;100.00
55490;BME280;44029;52.956;4.772;2022-08-11T15:33:43;102323.78;;;26.05;100.00
55490;BME280;44029;52.956;4.772;2022-08-11T15:36:29;102322.81;;;26.10;100.00
55490;BME280;44029;52.956;4.772;2022-08-11T15:39:34;102322.44;;;26.02;100.00
55490;BME280;44029;52.956;4.772;2022-08-11T15:42:12;102326.31;;;25.93;100.00
55490;BME280;44029;52.956;4.772;2022-08-11T15:44:59;102330.69;;;25.85;100.00
55490;BME280;44029;52.956;4.772;2022-08-11T15:47:53;102320.91;;;25.96;100.00
55490;BME280;44029;52.956;4.772;2022-08-11T15:50:24;102333.63;;;25.80;100.00
55490;BME280;44029;52.956;4.772;2022-08-11T15:52:56;102317.25;;;25.73;100.00
55490;BME280;44029;52.956;4.772;2022-08-11T15:55:24;102311.34;;;25.83;100.00
55490;BME280;44029;52.956;4.772;2022-08-11T15:57:52;102308.63;;;25.70;100.00
55490;BME280;44029;52.956;4.772;2022-08-11T16:00:37;102310.34;;;25.57;100.00
55490;BME280;44029;52.956;4.772;2022-08-11T16:03:24;102304.03;;;25.74;100.00
55490;BME280;44029;52.956;4.772;2022-08-11T16:06:10;102285.38;;;25.78;100.00
55490;BME280;44029;52.956;4.772;2022-08-11T16:08:39;102294.59;;;25.70;100.00
55490;BME280;44029;52.956;4.772;2022-08-11T16:11:05;102303.25;;;25.59;100.00
55490;BME280;44029;52.956;4.772;2022-08-11T16:13:33;102297.59;;;25.73;100.00
55490;BME280;44029;52.956;4.772;2022-08-11T16:16:01;102293.81;;;25.55;100.00
55490;BME280;44029;52.956;4.772;2022-08-11T16:18:54;102298.13;;;25.61;100.00